createdAt,value
2022-12-08T00:01:21.324Z,0.97
2022-12-08T00:03:48.421Z,0.85
2022-12-08T00:06:44.251Z,0.84
2022-12-08T00:09:22.063Z,0.75
2022-12-08T00:12:17.875Z,0.67
2022-12-08T00:14:46.374Z,0.62
2022-12-08T00:17:14.917Z,0.54
2022-12-08T00:19:41.961Z,0.51
2022-12-08T00:22:10.823Z,0.40
2022-12-08T00:24:41.945Z,0.40
2022-12-08T00:27:10.720Z,0.36
2022-12-08T00:29:37.249Z,0.27
2022-12-08T00:32:04.490Z,0.22
2022-12-08T00:34:32.052Z,0.21
2022-12-08T00:36:58.667Z,0.16
2022-12-08T00:39:25.141Z,0.11
2022-12-08T00:42:20.834Z,0.05
2022-12-08T00:44:47.970Z,-0.03
2022-12-08T00:47:14.941Z,-0.07
2022-12-08T00:49:41.998Z,-0.16
2022-12-08T00:52:08.915Z,-0.19
2022-12-08T00:54:35.577Z,-0.17
2022-12-08T00:57:02.140Z,-0.25
2022-12-08T00:59:28.722Z,-0.22
2022-12-08T01:01:55.366Z,-0.29
2022-12-08T01:04:21.888Z,-0.28
2022-12-08T01:06:49.241Z,-0.33
2022-12-08T01:09:17.635Z,-0.35
2022-12-08T01:11:45.302Z,-0.39
2022-12-08T01:14:12.673Z,-0.41
2022-12-08T01:16:41.313Z,-0.41
2022-12-08T01:19:09.780Z,-0.43
2022-12-08T01:21:36.446Z,-0.44
2022-12-08T01:24:03.293Z,-0.52
2022-12-08T01:26:29.875Z,-0.50
2022-12-08T01:28:56.618Z,-0.50
2022-12-08T01:31:23.659Z,-0.59
2022-12-08T01:33:50.786Z,-0.55
2022-12-08T01:36:25.018Z,-0.60
2022-12-08T01:38:52.474Z,-0.63
2022-12-08T01:41:21.397Z,-0.62
2022-12-08T01:44:01.580Z,-0.65
2022-12-08T01:46:30.453Z,-0.71
2022-12-08T01:49:03.336Z,-0.74
2022-12-08T01:51:33.646Z,-0.72
2022-12-08T01:54:00.691Z,-0.75
2022-12-08T01:56:42.908Z,-0.73
2022-12-08T01:59:10.074Z,-0.78
2022-12-08T02:01:36.522Z,-0.81
2022-12-08T02:04:04.301Z,-0.80
2022-12-08T02:06:36.259Z,-0.81
2022-12-08T02:09:05.419Z,-0.84
2022-12-08T02:11:31.934Z,-0.77
2022-12-08T02:14:00.531Z,-0.74
2022-12-08T02:16:45.877Z,-0.70
2022-12-08T02:19:36.833Z,-0.60
2022-12-08T02:22:08.981Z,-0.48
2022-12-08T02:24:58.364Z,-0.37
2022-12-08T02:28:02.357Z,-0.26
2022-12-08T02:30:40.698Z,-0.17
2022-12-08T02:33:43.700Z,-0.09
2022-12-08T02:36:20.667Z,-0.10
2022-12-08T02:38:49.963Z,-0.10
2022-12-08T02:41:19.218Z,-0.09
2022-12-08T02:43:48.978Z,-0.18
2022-12-08T02:46:24.222Z,-0.22
2022-12-08T02:48:52.384Z,-0.30
2022-12-08T02:51:19.306Z,-0.30
2022-12-08T02:53:46.698Z,-0.22
2022-12-08T02:56:37.114Z,-0.22
2022-12-08T02:59:17.294Z,-0.24
2022-12-08T03:02:02.146Z,-0.24
2022-12-08T03:04:35.489Z,-0.24
2022-12-08T03:07:12.783Z,-0.25
2022-12-08T03:09:50.152Z,-0.17
2022-12-08T03:12:34.770Z,-0.21
2022-12-08T03:15:08.743Z,-0.27
2022-12-08T03:17:38.419Z,-0.21
2022-12-08T03:20:09.469Z,-0.19
2022-12-08T03:22:37.506Z,-0.19
2022-12-08T03:25:04.224Z,-0.16
2022-12-08T03:27:32.237Z,-0.25
2022-12-08T03:30:00.331Z,-0.20
2022-12-08T03:32:42.360Z,-0.31
2022-12-08T03:35:13.958Z,-0.27
2022-12-08T03:37:41.575Z,-0.23
2022-12-08T03:40:12.021Z,-0.27
2022-12-08T03:42:38.539Z,-0.26
2022-12-08T03:45:05.792Z,-0.38
2022-12-08T03:47:32.384Z,-0.38
2022-12-08T03:49:58.885Z,-0.37
2022-12-08T03:52:25.227Z,-0.41
2022-12-08T03:54:51.717Z,-0.44
2022-12-08T03:57:18.231Z,-0.49
2022-12-08T03:59:44.766Z,-0.51
2022-12-08T04:02:11.431Z,-0.46
2022-12-08T04:04:38.024Z,-0.49
2022-12-08T04:07:04.773Z,-0.48
2022-12-08T04:09:31.296Z,-0.50
2022-12-08T04:11:59.013Z,-0.53
2022-12-08T04:14:25.552Z,-0.65
2022-12-08T04:16:51.957Z,-0.59
2022-12-08T04:19:18.516Z,-0.65
2022-12-08T04:21:44.861Z,-0.67
2022-12-08T04:24:11.254Z,-0.66
2022-12-08T04:26:37.806Z,-0.79
2022-12-08T04:29:04.354Z,-0.87
2022-12-08T04:31:30.844Z,-0.81
2022-12-08T04:33:57.499Z,-0.83
2022-12-08T04:36:23.925Z,-0.92
2022-12-08T04:38:54.260Z,-0.91
2022-12-08T04:41:20.887Z,-0.97
2022-12-08T04:43:47.242Z,-1.03
2022-12-08T04:46:13.796Z,-1.10
2022-12-08T04:48:40.926Z,-1.08
2022-12-08T04:51:12.561Z,-1.11
2022-12-08T04:53:44.888Z,-1.12
2022-12-08T04:56:17.301Z,-1.20
2022-12-08T04:58:49.529Z,-1.24
2022-12-08T05:01:19.651Z,-1.26
2022-12-08T05:03:46.169Z,-1.27
2022-12-08T05:06:14.192Z,-1.32
2022-12-08T05:08:41.726Z,-1.41
2022-12-08T05:11:11.006Z,-1.36
2022-12-08T05:13:39.158Z,-1.42
2022-12-08T05:16:13.829Z,-1.48
2022-12-08T05:18:41.728Z,-1.45
2022-12-08T05:21:08.640Z,-1.48
2022-12-08T05:23:35.211Z,-1.45
2022-12-08T05:26:02.323Z,-1.56
2022-12-08T05:28:44.369Z,-1.53
2022-12-08T05:31:13.119Z,-1.54
2022-12-08T05:33:40.612Z,-1.60
2022-12-08T05:36:08.252Z,-1.61
2022-12-08T05:38:34.861Z,-1.64
2022-12-08T05:41:01.312Z,-1.66
2022-12-08T05:43:27.801Z,-1.59
2022-12-08T05:45:54.413Z,-1.56
2022-12-08T05:48:20.864Z,-1.57
2022-12-08T05:50:48.739Z,-1.56
2022-12-08T05:53:16.219Z,-1.63
2022-12-08T05:55:42.565Z,-1.54
2022-12-08T05:58:15.600Z,-1.48
2022-12-08T06:00:42.287Z,-1.48
2022-12-08T06:03:08.899Z,-1.49
2022-12-08T06:05:36.018Z,-1.42
2022-12-08T06:08:02.692Z,-1.32
2022-12-08T06:10:29.703Z,-1.34
2022-12-08T06:12:56.306Z,-1.37
2022-12-08T06:15:22.839Z,-1.37
2022-12-08T06:17:49.352Z,-1.32
2022-12-08T06:20:15.947Z,-1.35
2022-12-08T06:22:42.517Z,-1.30
2022-12-08T06:25:10.239Z,-1.29
2022-12-08T06:27:37.046Z,-1.21
2022-12-08T06:30:04.665Z,-1.32
2022-12-08T06:32:31.451Z,-1.25
2022-12-08T06:34:57.978Z,-1.20
2022-12-08T06:37:24.498Z,-1.29
2022-12-08T06:39:51.843Z,-1.30
2022-12-08T06:42:37.110Z,-1.23
2022-12-08T06:45:03.993Z,-1.32
2022-12-08T06:47:30.817Z,-1.27
2022-12-08T06:49:57.373Z,-1.28
2022-12-08T06:52:23.868Z,-1.28
2022-12-08T06:54:50.452Z,-1.39
2022-12-08T06:57:18.533Z,-1.35
2022-12-08T06:59:45.016Z,-1.39
2022-12-08T07:02:11.581Z,-1.40
2022-12-08T07:04:38.206Z,-1.30
2022-12-08T07:07:04.717Z,-1.36
2022-12-08T07:09:31.248Z,-1.52
2022-12-08T07:11:57.781Z,-1.26
2022-12-08T07:14:25.009Z,-1.22
2022-12-08T07:16:52.161Z,-1.28
2022-12-08T07:19:19.260Z,-1.39
2022-12-08T07:21:45.849Z,-1.36
2022-12-08T07:24:12.529Z,-1.37
2022-12-08T07:26:39.885Z,-1.29
2022-12-08T07:29:06.304Z,-1.31
2022-12-08T07:31:33.101Z,-1.46
2022-12-08T07:33:59.718Z,-1.14
2022-12-08T07:36:26.573Z,-1.13
2022-12-08T07:38:53.883Z,-1.11
2022-12-08T07:41:23.813Z,-1.21
2022-12-08T07:43:53.638Z,-1.44
2022-12-08T07:46:23.227Z,-1.57
2022-12-08T07:48:49.913Z,-1.53
2022-12-08T07:51:17.256Z,-1.24
2022-12-08T07:53:50.036Z,-1.17
2022-12-08T07:56:20.723Z,-1.59
2022-12-08T07:58:47.632Z,-1.24
2022-12-08T08:01:25.519Z,-1.26
2022-12-08T08:03:53.255Z,-1.14
2022-12-08T08:06:19.744Z,-1.16
2022-12-08T08:08:46.294Z,-1.10
2022-12-08T08:11:18.999Z,-1.21
2022-12-08T08:13:47.531Z,-1.02
2022-12-08T08:16:14.382Z,-1.01
2022-12-08T08:18:41.580Z,-1.02
2022-12-08T08:21:36.587Z,-1.04
2022-12-08T08:23:54.734Z,-0.88
2022-12-08T08:26:21.285Z,-0.80
2022-12-08T08:28:48.309Z,-0.80
2022-12-08T08:31:14.926Z,-1.02
2022-12-08T08:33:41.496Z,-0.75
2022-12-08T08:36:09.295Z,-0.81
2022-12-08T08:38:39.264Z,-0.88
2022-12-08T08:41:10.463Z,-0.99
2022-12-08T08:43:38.657Z,-0.68
2022-12-08T08:46:06.780Z,-0.65
2022-12-08T08:48:33.476Z,-0.67
2022-12-08T08:51:08.594Z,-0.64
2022-12-08T08:53:35.650Z,-0.81
2022-12-08T08:56:03.010Z,-0.73
2022-12-08T08:58:29.796Z,-0.73
2022-12-08T09:00:56.625Z,-0.81
2022-12-08T09:03:23.124Z,-0.91
2022-12-08T09:05:50.780Z,-0.78
2022-12-08T09:08:17.450Z,-0.91
2022-12-08T09:10:44.073Z,-0.93
2022-12-08T09:13:10.546Z,-0.98
2022-12-08T09:15:37.306Z,-1.00
2022-12-08T09:18:03.854Z,-0.71
2022-12-08T09:20:30.171Z,-0.81
2022-12-08T09:22:56.652Z,-0.79
2022-12-08T09:25:23.152Z,-0.81
2022-12-08T09:27:49.523Z,-0.50
2022-12-08T09:30:16.089Z,-0.42
2022-12-08T09:32:42.734Z,-0.34
2022-12-08T09:35:09.275Z,-0.36
2022-12-08T09:37:35.682Z,-0.23
2022-12-08T09:40:02.509Z,-0.22
2022-12-08T09:42:42.109Z,-0.21
2022-12-08T09:45:14.401Z,-0.17
2022-12-08T09:47:45.105Z,-0.04
2022-12-08T09:50:33.791Z,-0.15
2022-12-08T09:53:03.836Z,-0.14
2022-12-08T09:55:41.675Z,0.09
2022-12-08T09:58:19.642Z,0.13
2022-12-08T10:00:46.162Z,0.12
2022-12-08T10:03:16.607Z,0.14
2022-12-08T10:05:52.061Z,0.12
2022-12-08T10:08:25.457Z,0.38
2022-12-08T10:10:59.448Z,0.23
2022-12-08T10:13:44.539Z,0.51
2022-12-08T10:16:33.722Z,0.32
2022-12-08T10:19:13.064Z,0.39
2022-12-08T10:21:40.793Z,0.57
2022-12-08T10:24:18.755Z,0.66
2022-12-08T10:26:47.114Z,0.76
2022-12-08T10:29:14.448Z,0.21
2022-12-08T10:31:41.454Z,0.42
2022-12-08T10:34:15.522Z,0.50
2022-12-08T10:36:50.835Z,0.51
2022-12-08T10:39:40.291Z,0.66
2022-12-08T10:42:15.746Z,0.61
2022-12-08T10:44:54.436Z,0.64
2022-12-08T10:47:22.173Z,0.61
2022-12-08T10:50:07.807Z,0.61
2022-12-08T10:52:39.496Z,0.69
2022-12-08T10:55:18.276Z,0.50
2022-12-08T10:57:45.275Z,0.61
2022-12-08T11:00:17.391Z,0.56
2022-12-08T11:02:53.759Z,0.63
2022-12-08T11:05:22.654Z,0.78
2022-12-08T11:07:53.428Z,0.68
2022-12-08T11:10:52.733Z,0.96
2022-12-08T11:13:27.529Z,1.07
2022-12-08T11:15:55.289Z,1.07
2022-12-08T11:18:29.624Z,1.11
2022-12-08T11:21:06.253Z,1.07
2022-12-08T11:23:36.509Z,1.05
2022-12-08T11:26:11.861Z,1.11
2022-12-08T11:28:39.115Z,1.30
2022-12-08T11:31:19.138Z,1.13
2022-12-08T11:33:47.246Z,1.19
2022-12-08T11:36:15.642Z,0.94
2022-12-08T11:38:46.176Z,1.21
2022-12-08T11:41:17.228Z,1.26
2022-12-08T11:44:12.517Z,1.44
2022-12-08T11:46:47.998Z,1.42
2022-12-08T11:49:14.780Z,1.48
2022-12-08T11:51:53.486Z,1.52
2022-12-08T11:54:26.261Z,1.38
2022-12-08T11:56:54.887Z,1.35
2022-12-08T11:59:44.500Z,1.18
2022-12-08T12:02:25.178Z,1.29
2022-12-08T12:06:05.413Z,1.12
2022-12-08T12:08:50.151Z,1.30
2022-12-08T12:11:44.251Z,1.33
2022-12-08T12:14:25.591Z,1.19
2022-12-08T12:17:05.191Z,0.96
2022-12-08T12:19:39.451Z,0.98
2022-12-08T12:22:15.337Z,1.10
2022-12-08T12:24:45.909Z,1.31
2022-12-08T12:27:15.580Z,1.11
2022-12-08T12:29:52.251Z,1.31
2022-12-08T12:32:22.660Z,1.21
2022-12-08T12:34:52.334Z,1.05
2022-12-08T12:37:22.656Z,0.96
2022-12-08T12:39:51.931Z,1.29
2022-12-08T12:42:39.278Z,1.22
2022-12-08T12:45:26.133Z,1.43
2022-12-08T12:47:56.975Z,1.19
2022-12-08T12:50:36.998Z,1.20
2022-12-08T12:53:24.347Z,0.93
2022-12-08T12:55:56.809Z,1.15
2022-12-08T12:58:32.124Z,0.99
2022-12-08T13:01:11.189Z,1.27
2022-12-08T13:03:40.371Z,1.22
2022-12-08T13:06:14.548Z,1.32
2022-12-08T13:08:50.906Z,1.26
2022-12-08T13:11:17.665Z,1.39
2022-12-08T13:13:58.956Z,0.99
2022-12-08T13:16:30.104Z,0.81
2022-12-08T13:18:59.683Z,1.20
2022-12-08T13:21:36.014Z,1.09
2022-12-08T13:24:14.474Z,1.11
2022-12-08T13:26:48.972Z,1.19
2022-12-08T13:29:22.756Z,1.28
2022-12-08T13:31:59.394Z,1.18
2022-12-08T13:34:49.310Z,1.22
2022-12-08T13:37:33.824Z,1.14
2022-12-08T13:40:09.519Z,1.37
2022-12-08T13:42:43.757Z,1.36
2022-12-08T13:45:39.699Z,1.38
2022-12-08T13:48:42.629Z,1.38
2022-12-08T13:57:25.944Z,1.58
2022-12-08T13:59:53.187Z,1.49
2022-12-08T14:02:47.051Z,1.55
2022-12-08T14:05:18.531Z,1.47
2022-12-08T14:07:48.404Z,1.48
2022-12-08T14:10:23.349Z,1.53
2022-12-08T14:12:59.334Z,1.62
2022-12-08T14:15:26.320Z,1.48
2022-12-08T14:17:55.483Z,1.61
2022-12-08T14:20:28.597Z,1.53
2022-12-08T14:22:56.131Z,1.45
2022-12-08T14:25:23.652Z,1.52
2022-12-08T14:27:56.671Z,1.59
2022-12-08T14:30:30.967Z,1.67
2022-12-08T14:32:59.589Z,1.43
2022-12-08T14:35:37.373Z,1.48
2022-12-08T14:38:06.870Z,1.51
2022-12-08T14:40:36.931Z,1.46
2022-12-08T14:43:09.549Z,1.45
2022-12-08T14:45:45.197Z,1.35
2022-12-08T14:48:36.558Z,1.39
2022-12-08T14:51:24.336Z,1.32
2022-12-08T14:54:01.480Z,1.30
2022-12-08T14:56:37.022Z,1.18
2022-12-08T14:59:18.246Z,1.25
2022-12-08T15:01:46.258Z,1.35
2022-12-08T15:04:12.552Z,1.27
2022-12-08T15:07:06.201Z,1.13
2022-12-08T15:09:43.888Z,1.24
2022-12-08T15:12:31.952Z,1.15
2022-12-08T15:15:17.746Z,0.97
2022-12-08T15:17:57.557Z,0.89
2022-12-08T15:20:35.500Z,0.94
2022-12-08T15:23:02.727Z,0.98
2022-12-08T15:25:29.300Z,0.98
2022-12-08T15:27:58.717Z,0.80
2022-12-08T15:30:26.942Z,0.63
2022-12-08T15:32:54.316Z,0.76
2022-12-08T15:35:21.510Z,0.83
2022-12-08T15:37:47.920Z,0.86
2022-12-08T15:40:19.991Z,0.93
2022-12-08T15:42:47.008Z,1.00
2022-12-08T15:45:14.630Z,0.93
2022-12-08T15:47:45.287Z,0.91
2022-12-08T15:50:30.052Z,0.96
2022-12-08T15:52:56.626Z,0.96
2022-12-08T15:55:23.237Z,1.00
2022-12-08T15:58:45.020Z,1.07
2022-12-08T16:00:55.846Z,0.98
2022-12-08T16:04:13.946Z,1.05
2022-12-08T16:09:40.288Z,1.01
2022-12-08T16:13:13.519Z,0.94
2022-12-08T16:15:51.304Z,1.05
2022-12-08T16:18:07.908Z,1.04
2022-12-08T16:23:41.688Z,0.95
2022-12-08T16:28:58.559Z,0.89
2022-12-08T16:31:24.997Z,0.79
2022-12-08T16:33:52.472Z,0.78
2022-12-08T16:36:18.971Z,0.92
2022-12-08T16:38:45.578Z,0.79
2022-12-08T16:41:34.467Z,0.83
2022-12-08T16:44:05.361Z,0.75
2022-12-08T16:46:32.231Z,0.92
2022-12-08T16:48:58.947Z,0.93
2022-12-08T16:51:27.259Z,0.83
2022-12-08T16:53:55.017Z,0.87
2022-12-08T16:56:26.257Z,0.89
2022-12-08T16:58:56.870Z,1.00
2022-12-08T17:01:23.730Z,0.89
2022-12-08T17:04:14.404Z,0.68
2022-12-08T17:06:36.859Z,0.73
2022-12-08T17:09:03.584Z,0.66
2022-12-08T17:11:37.460Z,0.85
2022-12-08T17:14:09.288Z,0.87
2022-12-08T17:16:35.973Z,0.92
2022-12-08T17:19:02.389Z,0.86
2022-12-08T17:21:28.964Z,0.78
2022-12-08T17:23:55.569Z,0.94
2022-12-08T17:26:22.061Z,0.95
2022-12-08T17:29:04.014Z,0.92
2022-12-08T17:31:32.230Z,0.92
2022-12-08T17:34:04.590Z,0.94
2022-12-08T17:36:31.855Z,0.89
2022-12-08T17:39:01.461Z,0.80
2022-12-08T17:41:29.357Z,0.74
2022-12-08T17:43:56.227Z,0.88
2022-12-08T17:46:23.887Z,0.75
2022-12-08T17:48:50.555Z,0.90
2022-12-08T17:51:17.533Z,0.90
2022-12-08T17:53:44.638Z,0.88
2022-12-08T17:56:20.706Z,0.81
2022-12-08T17:58:52.906Z,0.92
2022-12-08T18:01:22.301Z,0.93
2022-12-08T18:03:48.930Z,0.92
2022-12-08T18:06:17.606Z,0.95
2022-12-08T18:08:44.726Z,0.90
2022-12-08T18:11:17.882Z,0.80
2022-12-08T18:13:45.413Z,0.65
2022-12-08T18:16:11.961Z,0.70
2022-12-08T18:18:38.611Z,0.69
2022-12-08T18:21:05.269Z,0.67
2022-12-08T18:23:31.753Z,0.70
2022-12-08T18:25:58.244Z,0.68
2022-12-08T18:28:24.811Z,0.65
2022-12-08T18:30:51.409Z,0.72
2022-12-08T18:33:17.830Z,0.63
2022-12-08T18:35:44.269Z,0.68
2022-12-08T18:38:10.870Z,0.59
2022-12-08T18:40:37.420Z,0.63
2022-12-08T18:43:03.786Z,0.55
2022-12-08T18:45:30.317Z,0.55
2022-12-08T18:47:56.898Z,0.53
2022-12-08T18:50:23.394Z,0.48
2022-12-08T18:52:49.903Z,0.38
2022-12-08T18:55:16.267Z,0.50
2022-12-08T18:57:43.144Z,0.49
2022-12-08T19:00:12.961Z,0.34
2022-12-08T19:02:40.195Z,0.41
2022-12-08T19:05:08.607Z,0.53
2022-12-08T19:07:35.441Z,0.42
2022-12-08T19:10:01.945Z,0.46
2022-12-08T19:12:28.747Z,0.45
2022-12-08T19:14:55.302Z,0.42
2022-12-08T19:17:22.182Z,0.42
2022-12-08T19:19:48.684Z,0.45
2022-12-08T19:22:15.245Z,0.56
2022-12-08T19:24:41.763Z,0.49
2022-12-08T19:27:08.317Z,0.44
2022-12-08T19:29:34.646Z,0.39
2022-12-08T19:32:01.168Z,0.48
2022-12-08T19:34:27.640Z,0.42
2022-12-08T19:36:54.171Z,0.44
2022-12-08T19:39:41.853Z,0.42
2022-12-08T19:42:39.735Z,0.41
2022-12-08T19:45:21.598Z,0.48
2022-12-08T19:47:48.773Z,0.54
2022-12-08T19:50:35.264Z,0.53
2022-12-08T19:53:03.339Z,0.42
2022-12-08T19:55:29.822Z,0.51
2022-12-08T19:58:01.739Z,0.51
2022-12-08T20:00:30.127Z,0.46
2022-12-08T20:02:57.469Z,0.51
2022-12-08T20:05:24.486Z,0.40
2022-12-08T20:07:52.211Z,0.49
2022-12-08T20:10:33.660Z,0.40
2022-12-08T20:13:19.476Z,0.47
2022-12-08T20:15:46.321Z,0.38
2022-12-08T20:18:14.963Z,0.40
2022-12-08T20:20:43.347Z,0.43
2022-12-08T20:23:10.201Z,0.43
2022-12-08T20:25:42.351Z,0.35
2022-12-08T20:28:09.336Z,0.40
2022-12-08T20:30:38.757Z,0.50
2022-12-08T20:33:05.080Z,0.53
2022-12-08T20:35:31.408Z,0.42
2022-12-08T20:37:57.881Z,0.38
2022-12-08T20:40:25.054Z,0.39
2022-12-08T20:42:52.268Z,0.31
2022-12-08T20:45:19.034Z,0.40
2022-12-08T20:47:45.572Z,0.41
2022-12-08T20:50:12.505Z,0.41
2022-12-08T20:52:39.361Z,0.28
2022-12-08T20:55:07.613Z,0.24
2022-12-08T20:57:34.402Z,0.32
2022-12-08T21:00:01.033Z,0.32
2022-12-08T21:02:27.737Z,0.32
2022-12-08T21:04:54.412Z,0.22
2022-12-08T21:07:21.049Z,0.21
2022-12-08T21:09:47.481Z,0.28
2022-12-08T21:12:14.525Z,0.21
2022-12-08T21:14:41.045Z,0.27
2022-12-08T21:17:08.112Z,0.28
2022-12-08T21:19:35.044Z,0.20
2022-12-08T21:22:01.822Z,0.18
2022-12-08T21:24:33.683Z,0.11
2022-12-08T21:27:01.203Z,0.19
2022-12-08T21:29:27.737Z,0.15
2022-12-08T21:31:57.320Z,0.17
2022-12-08T21:34:25.179Z,0.30
2022-12-08T21:36:52.010Z,0.27
2022-12-08T21:39:18.852Z,0.32
2022-12-08T21:42:03.898Z,0.29
2022-12-08T21:44:30.435Z,0.32
2022-12-08T21:46:56.842Z,0.34
2022-12-08T21:49:23.581Z,0.37
2022-12-08T21:51:50.360Z,0.47
2022-12-08T21:54:19.146Z,0.41
2022-12-08T21:56:47.661Z,0.23
2022-12-08T21:59:14.439Z,0.36
2022-12-08T22:01:43.406Z,0.46
2022-12-08T22:04:12.544Z,0.40
2022-12-08T22:06:39.180Z,0.45
2022-12-08T22:09:06.239Z,0.41
2022-12-08T22:11:32.979Z,0.42
2022-12-08T22:13:59.655Z,0.46
2022-12-08T22:16:26.364Z,0.30
2022-12-08T22:18:52.984Z,0.29
2022-12-08T22:21:19.583Z,0.31
2022-12-08T22:23:46.306Z,0.38
2022-12-08T22:26:13.258Z,0.38
2022-12-08T22:28:42.007Z,0.48
2022-12-08T22:31:16.831Z,0.17
2022-12-08T22:33:43.541Z,0.31
2022-12-08T22:36:19.002Z,0.43
2022-12-08T22:38:46.348Z,0.46
2022-12-08T22:41:13.392Z,0.27
2022-12-08T22:43:40.536Z,0.28
2022-12-08T22:46:11.897Z,0.42
2022-12-08T22:48:38.975Z,0.44
2022-12-08T22:51:06.041Z,0.53
2022-12-08T22:53:33.224Z,0.43
2022-12-08T22:55:59.964Z,0.49
2022-12-08T22:58:26.668Z,0.47
2022-12-08T23:00:53.312Z,0.35
2022-12-08T23:03:20.101Z,0.51
2022-12-08T23:05:46.916Z,0.53
2022-12-08T23:08:15.980Z,0.43
2022-12-08T23:10:43.658Z,0.58
2022-12-08T23:13:10.323Z,0.56
2022-12-08T23:15:36.890Z,0.57
2022-12-08T23:18:03.564Z,0.58
2022-12-08T23:20:30.164Z,0.68
2022-12-08T23:22:56.802Z,0.58
2022-12-08T23:25:23.380Z,0.62
2022-12-08T23:27:49.922Z,0.52
2022-12-08T23:30:16.509Z,0.53
2022-12-08T23:32:43.349Z,0.50
2022-12-08T23:35:10.521Z,0.57
2022-12-08T23:37:37.041Z,0.54
2022-12-08T23:40:05.274Z,0.42
2022-12-08T23:42:32.199Z,0.52
2022-12-08T23:44:58.862Z,0.48
2022-12-08T23:47:25.428Z,0.55
2022-12-08T23:49:52.040Z,0.56
2022-12-08T23:52:18.671Z,0.61
2022-12-08T23:54:45.181Z,0.60
2022-12-08T23:57:11.841Z,0.63
2022-12-08T23:59:38.246Z,0.60
